createdAt,value
2019-03-16T00:00:14.549Z,94331.80
2019-03-16T00:05:11.524Z,94327.36
2019-03-16T00:10:08.615Z,94296.09
2019-03-16T00:15:06.931Z,94312.97
2019-03-16T00:20:10.371Z,94318.55
2019-03-16T00:25:09.279Z,94314.23
2019-03-16T00:30:12.105Z,94311.83
2019-03-16T00:35:09.191Z,94309.50
2019-03-16T00:40:09.197Z,94284.41
2019-03-16T00:45:09.604Z,94289.65
2019-03-16T00:50:12.370Z,94308.42
2019-03-16T00:55:10.020Z,94314.73
2019-03-16T01:00:12.750Z,94322.46
2019-03-16T01:05:12.703Z,94337.95
2019-03-16T01:10:10.356Z,94335.03
2019-03-16T01:15:11.942Z,94345.13
2019-03-16T01:20:11.629Z,94318.05
2019-03-16T01:25:10.235Z,94327.70
2019-03-16T01:30:15.644Z,94353.80
2019-03-16T01:35:12.749Z,94339.84
2019-03-16T01:40:10.733Z,94352.98
2019-03-16T01:45:13.130Z,94356.34
2019-03-16T01:50:11.719Z,94342.96
2019-03-16T01:55:08.994Z,94351.41
2019-03-16T02:00:12.661Z,94379.93
2019-03-16T02:05:09.879Z,94389.73
2019-03-16T02:10:08.653Z,94370.98
2019-03-16T02:15:07.342Z,94343.51
2019-03-16T02:20:07.224Z,94349.28
2019-03-16T02:25:06.072Z,94347.48
2019-03-16T02:30:09.422Z,94343.08
2019-03-16T02:35:08.323Z,94335.20
2019-03-16T02:40:09.265Z,94257.52
2019-03-16T02:45:12.384Z,94274.20
2019-03-16T02:50:10.863Z,94269.84
2019-03-16T02:55:08.340Z,94262.81
2019-03-16T03:00:14.732Z,94283.76
2019-03-16T03:05:11.862Z,94266.59
2019-03-16T03:10:14.891Z,94250.86
2019-03-16T03:15:12.016Z,94251.30
2019-03-16T03:20:09.693Z,94275.20
2019-03-16T03:25:06.909Z,94241.27
2019-03-16T03:30:12.403Z,94275.27
2019-03-16T03:35:12.589Z,94284.00
2019-03-16T03:40:11.317Z,94285.55
2019-03-16T03:45:10.816Z,94280.20
2019-03-16T03:50:11.337Z,94270.72
2019-03-16T03:55:12.843Z,94276.11
2019-03-16T04:00:16.110Z,94257.41
2019-03-16T04:05:13.526Z,94301.98
2019-03-16T04:10:11.077Z,94307.88
2019-03-16T04:15:12.347Z,94295.95
2019-03-16T04:20:13.811Z,94300.67
2019-03-16T04:25:10.946Z,94301.13
2019-03-16T04:30:12.895Z,94300.53
2019-03-16T04:35:10.071Z,94312.30
2019-03-16T04:40:09.685Z,94299.37
2019-03-16T04:45:10.438Z,94302.46
2019-03-16T04:50:11.818Z,94302.81
2019-03-16T04:55:08.877Z,94304.83
2019-03-16T05:00:11.683Z,94325.28
2019-03-16T05:05:09.002Z,94327.20
2019-03-16T05:10:09.776Z,94326.20
2019-03-16T05:15:11.131Z,94324.94
2019-03-16T05:20:10.460Z,94324.56
2019-03-16T05:25:11.188Z,94337.67
2019-03-16T05:30:13.062Z,94356.02
2019-03-16T05:35:10.192Z,94365.57
2019-03-16T05:40:09.467Z,94386.33
2019-03-16T05:45:11.163Z,94422.35
2019-03-16T05:50:10.892Z,94406.42
2019-03-16T05:55:10.105Z,94416.30
2019-03-16T06:00:13.255Z,94421.34
2019-03-16T06:05:12.263Z,94446.45
2019-03-16T06:10:11.086Z,94449.94
2019-03-16T06:15:10.638Z,94441.17
2019-03-16T06:20:17.194Z,94448.95
2019-03-16T06:25:14.248Z,94429.71
2019-03-16T06:30:16.149Z,94438.39
2019-03-16T06:35:24.109Z,94453.38
2019-03-16T06:40:14.094Z,94472.58
2019-03-16T06:45:12.368Z,94472.46
2019-03-16T06:50:15.487Z,94483.89
2019-03-16T06:55:19.417Z,94496.48
2019-03-16T07:00:17.406Z,94508.36
2019-03-16T07:05:15.608Z,94503.53
2019-03-16T07:10:13.305Z,94503.77
2019-03-16T07:15:17.649Z,94508.44
2019-03-16T07:20:17.149Z,94539.35
2019-03-16T07:25:14.239Z,94545.05
2019-03-16T07:30:13.144Z,94546.75
2019-03-16T07:35:12.849Z,94539.20
2019-03-16T07:40:13.709Z,94533.84
2019-03-16T07:45:23.781Z,94545.67
2019-03-16T07:50:22.855Z,94550.48
2019-03-16T07:55:21.055Z,94552.20
2019-03-16T08:00:18.248Z,94564.93
2019-03-16T08:05:19.590Z,94581.95
2019-03-16T08:10:18.662Z,94583.59
2019-03-16T08:15:15.967Z,94585.75
2019-03-16T08:20:14.467Z,94592.05
2019-03-16T08:25:16.409Z,94591.41
2019-03-16T08:30:13.576Z,94615.02
2019-03-16T08:35:12.284Z,94629.66
2019-03-16T08:40:10.434Z,94636.77
2019-03-16T08:45:09.004Z,94640.30
2019-03-16T08:50:08.565Z,94664.36
2019-03-16T08:55:09.259Z,94659.44
2019-03-16T09:00:12.887Z,94661.44
2019-03-16T09:05:11.992Z,94659.67
2019-03-16T09:10:11.758Z,94669.80
2019-03-16T09:15:13.573Z,94687.86
2019-03-16T09:20:22.750Z,94696.59
2019-03-16T09:25:26.275Z,94715.27
2019-03-16T09:30:25.344Z,94701.91
2019-03-16T09:35:24.353Z,94705.99
2019-03-16T09:40:21.438Z,94711.41
2019-03-16T09:45:18.621Z,94721.91
2019-03-16T09:50:17.727Z,94720.86
2019-03-16T09:55:17.008Z,94728.50
2019-03-16T10:00:15.608Z,94744.83
2019-03-16T10:05:17.150Z,94762.45
2019-03-16T10:10:25.302Z,94759.73
2019-03-16T10:15:24.012Z,94767.83
2019-03-16T10:20:21.166Z,94765.39
2019-03-16T10:25:21.919Z,94772.91
2019-03-16T10:30:25.957Z,94765.66
2019-03-16T10:35:25.844Z,94754.95
2019-03-16T10:40:24.878Z,94782.14
2019-03-16T10:45:23.308Z,94774.30
2019-03-16T10:50:20.659Z,94804.90
2019-03-16T10:55:20.590Z,94836.36
2019-03-16T11:00:22.166Z,94828.25
2019-03-16T11:05:19.411Z,94823.81
2019-03-16T11:10:18.440Z,94829.22
2019-03-16T11:15:17.304Z,94824.88
2019-03-16T11:20:16.361Z,94829.38
2019-03-16T11:25:13.601Z,94837.11
2019-03-16T11:30:18.487Z,94841.80
2019-03-16T11:35:20.194Z,94828.06
2019-03-16T11:40:18.065Z,94821.14
2019-03-16T11:45:17.052Z,94813.25
2019-03-16T11:50:19.982Z,94819.11
2019-03-16T11:55:17.608Z,94837.02
2019-03-16T12:00:15.060Z,94838.02
2019-03-16T12:05:14.178Z,94852.88
2019-03-16T12:10:14.711Z,94863.80
2019-03-16T12:15:13.281Z,94856.45
2019-03-16T12:20:18.059Z,94857.03
2019-03-16T12:25:14.464Z,94858.31
2019-03-16T12:30:13.702Z,94865.44
2019-03-16T12:35:12.830Z,94874.04
2019-03-16T12:40:14.056Z,94880.55
2019-03-16T12:45:15.090Z,94873.72
2019-03-16T12:50:15.084Z,94891.46
2019-03-16T12:55:12.432Z,94894.33
2019-03-16T13:00:16.037Z,94882.58
2019-03-16T13:05:15.194Z,94889.15
2019-03-16T13:10:21.615Z,94895.06
2019-03-16T13:15:21.505Z,94897.27
2019-03-16T13:20:18.644Z,94903.74
2019-03-16T13:25:19.459Z,94914.19
2019-03-16T13:30:27.079Z,94932.84
2019-03-16T13:35:25.557Z,94929.15
2019-03-16T13:40:22.721Z,94944.64
2019-03-16T13:45:20.672Z,94942.44
2019-03-16T13:50:19.471Z,94939.88
2019-03-16T13:55:18.995Z,94961.66
2019-03-16T14:00:19.880Z,94952.20
2019-03-16T14:05:18.989Z,94953.14
2019-03-16T14:10:24.866Z,94951.59
2019-03-16T14:15:21.955Z,94955.09
2019-03-16T14:20:22.751Z,94970.78
2019-03-16T14:25:20.801Z,94964.05
2019-03-16T14:30:39.283Z,94977.91
2019-03-16T14:35:21.397Z,94983.95
2019-03-16T14:40:19.526Z,94995.63
2019-03-16T14:45:17.895Z,94981.78
2019-03-16T14:50:21.341Z,94992.39
2019-03-16T14:55:18.464Z,94993.80
2019-03-16T15:00:20.525Z,95012.10
2019-03-16T15:05:17.700Z,95002.23
2019-03-16T15:10:19.749Z,95003.16
2019-03-16T15:15:18.891Z,95013.28
2019-03-16T15:20:16.277Z,95017.02
2019-03-16T15:25:15.376Z,95017.08
2019-03-16T15:30:21.518Z,95018.45
2019-03-16T15:35:18.630Z,95017.61
2019-03-16T15:40:17.663Z,95024.27
2019-03-16T15:45:21.271Z,95033.77
2019-03-16T15:50:18.987Z,95038.19
2019-03-16T15:55:23.219Z,95043.63
2019-03-16T16:00:24.876Z,95050.01
2019-03-16T16:05:24.573Z,95053.51
2019-03-16T16:10:23.321Z,95049.13
2019-03-16T16:15:20.558Z,95059.00
2019-03-16T16:20:18.523Z,95055.53
2019-03-16T16:25:21.313Z,95061.80
2019-03-16T16:30:20.670Z,95077.66
2019-03-16T16:35:17.919Z,95082.17
2019-03-16T16:45:46.889Z,95101.84
2019-03-16T16:50:49.223Z,95094.09
2019-03-16T16:55:46.367Z,95097.50
2019-03-16T17:00:46.548Z,95103.25
2019-03-16T17:05:52.926Z,95118.06
2019-03-16T17:10:51.932Z,95105.92
2019-03-16T17:16:08.759Z,95116.50
2019-03-16T17:21:05.892Z,95116.97
2019-03-16T17:26:02.940Z,95131.20
2019-03-16T17:31:05.008Z,95135.17
2019-03-16T17:36:02.059Z,95136.36
2019-03-16T17:41:01.238Z,95152.37
2019-03-16T17:46:00.552Z,95155.89
2019-03-16T17:50:58.144Z,95163.76
2019-03-16T17:55:56.949Z,95162.47
2019-03-16T18:00:54.063Z,95171.69
2019-03-16T18:05:51.231Z,95178.91
2019-03-16T18:10:48.348Z,95180.67
2019-03-16T18:15:45.437Z,95186.75
2019-03-16T18:20:51.438Z,95189.97
2019-03-16T18:25:48.438Z,95190.23
2019-03-16T18:30:47.041Z,95191.84
2019-03-16T18:35:44.053Z,95193.70
2019-03-16T18:40:41.156Z,95197.05
2019-03-16T18:45:38.221Z,95200.03
2019-03-16T18:50:35.406Z,95203.55
2019-03-16T18:55:33.221Z,95203.73
2019-03-16T19:00:30.308Z,95210.80
2019-03-16T19:05:30.763Z,95215.06
2019-03-16T19:10:27.993Z,95212.27
2019-03-16T19:15:25.005Z,95214.36
2019-03-16T19:20:22.427Z,95220.27
2019-03-16T19:25:22.368Z,95217.45
2019-03-16T19:30:19.754Z,95229.86
2019-03-16T19:35:18.377Z,95227.93
2019-03-16T19:40:20.505Z,95234.19
2019-03-16T19:45:17.708Z,95230.66
2019-03-16T19:50:16.090Z,95222.09
2019-03-16T19:55:13.854Z,95233.42
2019-03-16T20:00:16.370Z,95242.27
2019-03-16T20:05:15.441Z,95247.32
2019-03-16T20:10:18.459Z,95244.52
2019-03-16T20:15:16.025Z,95242.19
2019-03-16T20:20:16.698Z,95241.83
2019-03-16T20:25:14.116Z,95235.39
2019-03-16T20:30:25.838Z,95233.92
2019-03-16T20:35:17.247Z,95223.68
2019-03-16T20:40:17.019Z,95231.66
2019-03-16T20:45:14.364Z,95237.23
2019-03-16T20:50:15.103Z,95246.06
2019-03-16T20:55:12.595Z,95255.94
2019-03-16T21:00:17.848Z,95265.23
2019-03-16T21:05:14.980Z,95266.72
2019-03-16T21:10:13.857Z,95254.41
2019-03-16T21:15:15.452Z,95258.66
2019-03-16T21:20:17.234Z,95253.98
2019-03-16T21:25:16.064Z,95257.55
2019-03-16T21:30:16.166Z,95263.73
2019-03-16T21:35:13.259Z,95254.53
2019-03-16T21:40:15.023Z,95253.45
2019-03-16T21:45:13.385Z,95255.80
2019-03-16T21:50:13.719Z,95259.79
2019-03-16T21:55:12.267Z,95259.09
2019-03-16T22:00:17.312Z,95248.13
2019-03-16T22:05:14.385Z,95249.80
2019-03-16T22:10:16.543Z,95243.09
2019-03-16T22:15:15.021Z,95243.30
2019-03-16T22:20:17.884Z,95239.06
2019-03-16T22:25:14.972Z,95237.37
2019-03-16T22:30:16.141Z,95236.16
2019-03-16T22:35:13.236Z,95233.46
2019-03-16T22:40:11.857Z,95238.26
2019-03-16T22:45:13.120Z,95227.66
2019-03-16T22:50:14.507Z,95233.24
2019-03-16T22:55:11.581Z,95236.38
2019-03-16T23:00:23.143Z,95237.28
2019-03-16T23:05:20.299Z,95236.59
2019-03-16T23:10:20.258Z,95233.38
2019-03-16T23:15:17.477Z,95235.03
2019-03-16T23:20:14.573Z,95234.16
2019-03-16T23:25:11.562Z,95233.03
2019-03-16T23:30:12.244Z,95231.39
2019-03-16T23:35:11.045Z,95234.34
2019-03-16T23:40:12.779Z,95237.41
2019-03-16T23:45:12.250Z,95238.03
2019-03-16T23:50:11.894Z,95245.67
2019-03-16T23:55:09.302Z,95247.30
